CYHUCYSC

Guest
Details From CYHU - St Hubert
To CYSC - Sherbrooke
Flight Number -
Tags Generated
Created
Modified
Stats Distance 73 nm / 135 km
Max Altitude 0 ft / 0 m
Waypoints 2
Social Downloads 0
Likes 0
Share VATSIM

Download

Looking for another format? Having issues loading an existing format? Contact us
Advertisement - Login to hide

Notes

Generated

Route

CYHU CYSC

ID Type Via Altitude Latitude Longitude Leg Dist Tot Dist Heading (true) Name
O CYHU APT - 0 ft / 0 m 45.51032˚ -73.42670˚ - 0 nm - -
O CYSC APT - 0 ft / 0 m 45.44246˚ -71.70161˚ 72 nm 72 nm 93° / 94° -

Altitude Profile

Advertisement - Login to hide

CYHU

Details ICAO CYHU (YHU)
Name St Hubert
Region Canada
Timezone America/Montreal (UTC-4.0)
Stats Elevation 90 ft / 27 m (AMSL)
Location 45.514297° -73.416351°
Runways 3
Magnetic Variation 14.468° W

METAR

CYHU 231004Z AUTO 24012G17KT 3SM BR OVC004 13/12 A2986 RMK SLP112

Decode

TAF

TAF TAF AMD CYHU 230728Z 2307/2406 24007KT 1/2SM FG SCT006 TEMPO 2307/2311 3SM BR FEW006 SCT012 FM231100 27010KT P6SM SCT012 TEMPO 2311/2313 2SM BR BECMG 2315/2317 33010KT FM231800 33010G20KT P6SM FEW060 FM240100 34010KT P6SM SCT100 RMK FCST BASED ON AUTO OBS. NXT FCST BY 231200Z

Decode

Departure Runways

ID Width Length Bearing (true) Bearing (mag) Surface Threshold Offset Overrun Length
06L 150 ft / 46 m 7,870 ft / 2,399 m 46.95° 61.42° Asphalt 1,100 ft / 335 m 0 ft / 0 m
06R 100 ft / 30 m 3,874 ft / 1,181 m 47.16° 61.63° Asphalt 0 ft / 0 m 0 ft / 0 m
10 150 ft / 46 m 2,787 ft / 849 m 83.75° 98.22° Asphalt 0 ft / 0 m 0 ft / 0 m
24L 100 ft / 30 m 3,874 ft / 1,181 m 227.16° 241.63° Asphalt 0 ft / 0 m 0 ft / 0 m
24R 150 ft / 46 m 7,870 ft / 2,399 m 226.97° 241.44° Asphalt 0 ft / 0 m 90 ft / 27 m
28 150 ft / 46 m 2,787 ft / 849 m 263.75° 278.22° Asphalt 0 ft / 0 m 0 ft / 0 m

CYSC

Details ICAO CYSC (YSC)
Name SHERBROOKE
Region Canada
Timezone America/Montreal (UTC-4.0)
Stats Elevation 792 ft / 241 m (AMSL)
Location 45.438492° -71.691369°
Runways 1
Magnetic Variation 15.231° W

METAR

CYSC 231000Z AUTO 21005KT 6SM BR BKN017 12/12 A2985 RMK SLP113

Decode

TAF

TAF AMD CYSC 230050Z 2300/2303 VRB03KT P6SM -RA SCT015 OVC030 TEMPO 2300/2303 4SM -RA BR BKN008 OVC030 RMK FCST BASED ON AUTO OBS. NXT FCST WILL BE ISSUED AT 231045Z

Decode

Destination Runways

ID Width Length Bearing (true) Bearing (mag) Surface Threshold Offset Overrun Length
13 150 ft / 46 m 5,988 ft / 1,825 m 118.88° 134.11° Asphalt 0 ft / 0 m 0 ft / 0 m
31 150 ft / 46 m 5,988 ft / 1,825 m 298.90° 314.13° Asphalt 0 ft / 0 m 0 ft / 0 m

Popular Alternatives